CPX431 Details

Departure: Louis Armstrong New Orleans International Airport (KMSY)
Arrival: Nashville International Airport (KBNA) at N/A
Route: LBY MEI IGB HRTUN CHSNE2
Notes:


Current Weather Information
KMSY 230753Z 00000KT 10SM CLR 13/08 A3015 RMK AO2 SLP211 T01330078
KBNA 230753Z 26003KT 10SM CLR 09/02 A3012 RMK AO2 SLP197 T00890022